sensor_id;sensor_type;location;lat;lon;timestamp;P1;durP1;ratioP1;P2;durP2;ratioP2
13801;SDS011;6972;51.518;6.918;2022-10-16T00:01:21;9.60;;;3.88;;
13801;SDS011;6972;51.518;6.918;2022-10-16T00:03:48;7.88;;;4.18;;
13801;SDS011;6972;51.518;6.918;2022-10-16T00:06:15;8.90;;;3.88;;
13801;SDS011;6972;51.518;6.918;2022-10-16T00:08:42;10.82;;;4.13;;
13801;SDS011;6972;51.518;6.918;2022-10-16T00:11:13;7.28;;;3.35;;
13801;SDS011;6972;51.518;6.918;2022-10-16T00:13:43;7.22;;;3.55;;
13801;SDS011;6972;51.518;6.918;2022-10-16T00:16:11;7.78;;;3.40;;
13801;SDS011;6972;51.518;6.918;2022-10-16T00:18:37;6.38;;;3.20;;
13801;SDS011;6972;51.518;6.918;2022-10-16T00:21:04;9.00;;;3.38;;
13801;SDS011;6972;51.518;6.918;2022-10-16T00:23:31;7.07;;;3.40;;
13801;SDS011;6972;51.518;6.918;2022-10-16T00:25:58;7.10;;;3.47;;
13801;SDS011;6972;51.518;6.918;2022-10-16T00:28:26;7.80;;;3.40;;
13801;SDS011;6972;51.518;6.918;2022-10-16T00:30:52;6.82;;;3.20;;
13801;SDS011;6972;51.518;6.918;2022-10-16T00:33:18;5.57;;;3.15;;
13801;SDS011;6972;51.518;6.918;2022-10-16T00:35:45;8.48;;;3.30;;
13801;SDS011;6972;51.518;6.918;2022-10-16T00:38:11;4.90;;;3.00;;
13801;SDS011;6972;51.518;6.918;2022-10-16T00:40:37;6.03;;;3.30;;
13801;SDS011;6972;51.518;6.918;2022-10-16T00:43:04;9.75;;;3.20;;
13801;SDS011;6972;51.518;6.918;2022-10-16T00:45:37;5.38;;;3.45;;
13801;SDS011;6972;51.518;6.918;2022-10-16T00:48:03;10.48;;;2.88;;
13801;SDS011;6972;51.518;6.918;2022-10-16T00:52:55;7.47;;;2.97;;
13801;SDS011;6972;51.518;6.918;2022-10-16T00:55:22;8.85;;;3.20;;
13801;SDS011;6972;51.518;6.918;2022-10-16T00:57:48;9.98;;;3.83;;
13801;SDS011;6972;51.518;6.918;2022-10-16T01:00:17;8.15;;;2.85;;
13801;SDS011;6972;51.518;6.918;2022-10-16T01:02:51;5.03;;;3.10;;
13801;SDS011;6972;51.518;6.918;2022-10-16T01:05:22;7.35;;;3.35;;
13801;SDS011;6972;51.518;6.918;2022-10-16T01:13:21;8.60;;;3.40;;
13801;SDS011;6972;51.518;6.918;2022-10-16T01:15:55;7.30;;;2.95;;
13801;SDS011;6972;51.518;6.918;2022-10-16T01:21:01;10.10;;;4.10;;
13801;SDS011;6972;51.518;6.918;2022-10-16T01:29:40;8.35;;;3.15;;
13801;SDS011;6972;51.518;6.918;2022-10-16T01:32:01;4.88;;;3.33;;
13801;SDS011;6972;51.518;6.918;2022-10-16T01:34:37;7.00;;;3.20;;
13801;SDS011;6972;51.518;6.918;2022-10-16T01:37:15;8.15;;;2.97;;
13801;SDS011;6972;51.518;6.918;2022-10-16T01:39:46;4.65;;;2.78;;
13801;SDS011;6972;51.518;6.918;2022-10-16T01:42:19;9.95;;;3.38;;
13801;SDS011;6972;51.518;6.918;2022-10-16T01:44:49;9.63;;;2.85;;
13801;SDS011;6972;51.518;6.918;2022-10-16T01:47:17;4.45;;;2.70;;
13801;SDS011;6972;51.518;6.918;2022-10-16T01:49:47;5.30;;;2.70;;
13801;SDS011;6972;51.518;6.918;2022-10-16T01:52:15;6.20;;;2.67;;
13801;SDS011;6972;51.518;6.918;2022-10-16T01:54:43;4.40;;;2.30;;
13801;SDS011;6972;51.518;6.918;2022-10-16T01:57:12;5.00;;;2.80;;
13801;SDS011;6972;51.518;6.918;2022-10-16T01:59:45;6.57;;;2.60;;
13801;SDS011;6972;51.518;6.918;2022-10-16T02:02:14;5.57;;;2.83;;
13801;SDS011;6972;51.518;6.918;2022-10-16T02:04:44;4.75;;;2.47;;
13801;SDS011;6972;51.518;6.918;2022-10-16T02:07:12;6.75;;;2.70;;
13801;SDS011;6972;51.518;6.918;2022-10-16T02:09:39;7.50;;;2.67;;
13801;SDS011;6972;51.518;6.918;2022-10-16T02:14:55;4.78;;;2.55;;
13801;SDS011;6972;51.518;6.918;2022-10-16T02:17:22;6.70;;;1.83;;
13801;SDS011;6972;51.518;6.918;2022-10-16T02:19:48;6.22;;;2.00;;
13801;SDS011;6972;51.518;6.918;2022-10-16T02:22:22;2.85;;;1.90;;
13801;SDS011;6972;51.518;6.918;2022-10-16T02:25:10;3.88;;;1.92;;
13801;SDS011;6972;51.518;6.918;2022-10-16T02:33:08;7.75;;;2.17;;
13801;SDS011;6972;51.518;6.918;2022-10-16T02:35:35;3.08;;;1.80;;
13801;SDS011;6972;51.518;6.918;2022-10-16T02:38:03;3.30;;;1.90;;
13801;SDS011;6972;51.518;6.918;2022-10-16T02:40:29;4.75;;;1.70;;
13801;SDS011;6972;51.518;6.918;2022-10-16T02:42:55;4.50;;;1.92;;
13801;SDS011;6972;51.518;6.918;2022-10-16T02:45:22;3.83;;;1.77;;
13801;SDS011;6972;51.518;6.918;2022-10-16T02:47:49;5.32;;;2.10;;
13801;SDS011;6972;51.518;6.918;2022-10-16T02:50:15;2.47;;;1.70;;
13801;SDS011;6972;51.518;6.918;2022-10-16T02:52:41;3.70;;;1.90;;
13801;SDS011;6972;51.518;6.918;2022-10-16T02:55:07;6.32;;;2.25;;
13801;SDS011;6972;51.518;6.918;2022-10-16T02:57:33;2.60;;;1.52;;
13801;SDS011;6972;51.518;6.918;2022-10-16T03:00:02;3.55;;;1.63;;
13801;SDS011;6972;51.518;6.918;2022-10-16T03:02:29;2.78;;;1.63;;
13801;SDS011;6972;51.518;6.918;2022-10-16T03:04:55;5.07;;;2.10;;
13801;SDS011;6972;51.518;6.918;2022-10-16T03:07:21;2.60;;;1.65;;
13801;SDS011;6972;51.518;6.918;2022-10-16T03:09:47;2.90;;;1.65;;
13801;SDS011;6972;51.518;6.918;2022-10-16T03:12:13;4.47;;;1.95;;
13801;SDS011;6972;51.518;6.918;2022-10-16T03:14:39;7.05;;;1.88;;
13801;SDS011;6972;51.518;6.918;2022-10-16T03:17:05;5.22;;;1.70;;
13801;SDS011;6972;51.518;6.918;2022-10-16T03:19:31;1.92;;;1.60;;
13801;SDS011;6972;51.518;6.918;2022-10-16T03:21:57;4.10;;;1.70;;
13801;SDS011;6972;51.518;6.918;2022-10-16T03:24:22;2.22;;;1.60;;
13801;SDS011;6972;51.518;6.918;2022-10-16T03:26:48;2.45;;;1.35;;
13801;SDS011;6972;51.518;6.918;2022-10-16T03:29:14;4.65;;;1.60;;
13801;SDS011;6972;51.518;6.918;2022-10-16T03:31:40;3.03;;;1.70;;
13801;SDS011;6972;51.518;6.918;2022-10-16T03:34:06;3.75;;;1.80;;
13801;SDS011;6972;51.518;6.918;2022-10-16T03:36:32;3.95;;;1.42;;
13801;SDS011;6972;51.518;6.918;2022-10-16T03:38:58;2.63;;;1.60;;
13801;SDS011;6972;51.518;6.918;2022-10-16T03:41:24;4.85;;;1.73;;
13801;SDS011;6972;51.518;6.918;2022-10-16T03:43:50;5.00;;;1.80;;
13801;SDS011;6972;51.518;6.918;2022-10-16T03:46:19;3.15;;;1.77;;
13801;SDS011;6972;51.518;6.918;2022-10-16T03:48:45;2.72;;;1.60;;
13801;SDS011;6972;51.518;6.918;2022-10-16T03:51:11;2.10;;;1.63;;
13801;SDS011;6972;51.518;6.918;2022-10-16T03:53:37;3.88;;;1.60;;
13801;SDS011;6972;51.518;6.918;2022-10-16T03:56:03;9.00;;;1.75;;
13801;SDS011;6972;51.518;6.918;2022-10-16T03:58:29;4.78;;;1.60;;
13801;SDS011;6972;51.518;6.918;2022-10-16T04:00:55;3.70;;;1.55;;
13801;SDS011;6972;51.518;6.918;2022-10-16T04:03:21;2.20;;;1.42;;
13801;SDS011;6972;51.518;6.918;2022-10-16T04:05:48;2.47;;;1.70;;
13801;SDS011;6972;51.518;6.918;2022-10-16T04:08:14;3.72;;;1.70;;
13801;SDS011;6972;51.518;6.918;2022-10-16T04:10:39;3.53;;;1.60;;
13801;SDS011;6972;51.518;6.918;2022-10-16T04:13:08;4.18;;;1.80;;
13801;SDS011;6972;51.518;6.918;2022-10-16T04:15:34;2.50;;;1.70;;
13801;SDS011;6972;51.518;6.918;2022-10-16T04:18:00;2.55;;;1.77;;
13801;SDS011;6972;51.518;6.918;2022-10-16T04:20:26;3.08;;;1.52;;
13801;SDS011;6972;51.518;6.918;2022-10-16T04:22:52;2.60;;;1.50;;
13801;SDS011;6972;51.518;6.918;2022-10-16T04:25:18;3.63;;;1.83;;
13801;SDS011;6972;51.518;6.918;2022-10-16T04:27:44;2.78;;;1.70;;
13801;SDS011;6972;51.518;6.918;2022-10-16T04:30:09;3.55;;;1.63;;
13801;SDS011;6972;51.518;6.918;2022-10-16T04:32:35;6.57;;;2.30;;
13801;SDS011;6972;51.518;6.918;2022-10-16T04:35:01;5.55;;;1.50;;
13801;SDS011;6972;51.518;6.918;2022-10-16T04:37:27;2.33;;;1.42;;
13801;SDS011;6972;51.518;6.918;2022-10-16T04:39:53;2.45;;;2.00;;
13801;SDS011;6972;51.518;6.918;2022-10-16T04:42:20;3.90;;;1.73;;
13801;SDS011;6972;51.518;6.918;2022-10-16T04:44:46;3.88;;;1.92;;
13801;SDS011;6972;51.518;6.918;2022-10-16T04:47:12;5.00;;;1.50;;
13801;SDS011;6972;51.518;6.918;2022-10-16T04:49:38;7.13;;;1.77;;
13801;SDS011;6972;51.518;6.918;2022-10-16T04:52:04;2.88;;;1.80;;
13801;SDS011;6972;51.518;6.918;2022-10-16T04:54:30;4.93;;;1.77;;
13801;SDS011;6972;51.518;6.918;2022-10-16T04:56:56;3.85;;;2.03;;
13801;SDS011;6972;51.518;6.918;2022-10-16T04:59:22;2.15;;;1.70;;
13801;SDS011;6972;51.518;6.918;2022-10-16T05:01:48;3.88;;;1.50;;
13801;SDS011;6972;51.518;6.918;2022-10-16T05:04:14;3.33;;;2.00;;
13801;SDS011;6972;51.518;6.918;2022-10-16T05:06:41;2.65;;;1.88;;
13801;SDS011;6972;51.518;6.918;2022-10-16T05:09:07;2.90;;;1.52;;
13801;SDS011;6972;51.518;6.918;2022-10-16T05:11:33;5.22;;;1.85;;
13801;SDS011;6972;51.518;6.918;2022-10-16T05:13:59;4.00;;;1.90;;
13801;SDS011;6972;51.518;6.918;2022-10-16T05:16:25;5.22;;;1.70;;
13801;SDS011;6972;51.518;6.918;2022-10-16T05:18:51;2.45;;;1.73;;
13801;SDS011;6972;51.518;6.918;2022-10-16T05:21:17;3.35;;;1.92;;
13801;SDS011;6972;51.518;6.918;2022-10-16T05:23:43;3.90;;;1.77;;
13801;SDS011;6972;51.518;6.918;2022-10-16T05:26:09;2.88;;;1.80;;
13801;SDS011;6972;51.518;6.918;2022-10-16T05:28:35;4.03;;;1.60;;
13801;SDS011;6972;51.518;6.918;2022-10-16T05:31:05;4.32;;;1.70;;
13801;SDS011;6972;51.518;6.918;2022-10-16T05:33:31;2.50;;;1.90;;
13801;SDS011;6972;51.518;6.918;2022-10-16T05:36:00;2.83;;;1.70;;
13801;SDS011;6972;51.518;6.918;2022-10-16T05:38:31;1.90;;;1.60;;
13801;SDS011;6972;51.518;6.918;2022-10-16T05:40:57;8.57;;;2.10;;
13801;SDS011;6972;51.518;6.918;2022-10-16T05:43:23;4.85;;;1.58;;
13801;SDS011;6972;51.518;6.918;2022-10-16T05:45:55;2.90;;;1.70;;
13801;SDS011;6972;51.518;6.918;2022-10-16T05:48:29;4.68;;;1.83;;
13801;SDS011;6972;51.518;6.918;2022-10-16T05:51:02;2.90;;;1.80;;
13801;SDS011;6972;51.518;6.918;2022-10-16T05:53:30;2.38;;;1.60;;
13801;SDS011;6972;51.518;6.918;2022-10-16T05:55:58;1.70;;;1.50;;
13801;SDS011;6972;51.518;6.918;2022-10-16T05:58:27;5.78;;;1.90;;
13801;SDS011;6972;51.518;6.918;2022-10-16T06:00:59;3.72;;;1.80;;
13801;SDS011;6972;51.518;6.918;2022-10-16T06:03:26;6.28;;;1.70;;
13801;SDS011;6972;51.518;6.918;2022-10-16T06:05:52;4.20;;;1.80;;
13801;SDS011;6972;51.518;6.918;2022-10-16T06:08:19;4.60;;;1.65;;
13801;SDS011;6972;51.518;6.918;2022-10-16T06:10:46;2.55;;;1.77;;
13801;SDS011;6972;51.518;6.918;2022-10-16T06:13:12;2.15;;;1.70;;
13801;SDS011;6972;51.518;6.918;2022-10-16T06:15:39;2.97;;;1.70;;
13801;SDS011;6972;51.518;6.918;2022-10-16T06:18:07;3.47;;;1.80;;
13801;SDS011;6972;51.518;6.918;2022-10-16T06:20:35;5.57;;;1.60;;
13801;SDS011;6972;51.518;6.918;2022-10-16T06:23:02;6.70;;;1.67;;
13801;SDS011;6972;51.518;6.918;2022-10-16T06:25:29;2.58;;;1.65;;
13801;SDS011;6972;51.518;6.918;2022-10-16T06:27:55;3.00;;;1.73;;
13801;SDS011;6972;51.518;6.918;2022-10-16T06:30:20;3.08;;;1.80;;
13801;SDS011;6972;51.518;6.918;2022-10-16T06:32:46;2.20;;;1.70;;
13801;SDS011;6972;51.518;6.918;2022-10-16T06:35:12;5.32;;;1.80;;
13801;SDS011;6972;51.518;6.918;2022-10-16T06:37:38;11.13;;;2.15;;
13801;SDS011;6972;51.518;6.918;2022-10-16T06:40:04;3.88;;;1.70;;
13801;SDS011;6972;51.518;6.918;2022-10-16T06:42:30;1.77;;;1.60;;
13801;SDS011;6972;51.518;6.918;2022-10-16T06:44:56;3.50;;;1.67;;
13801;SDS011;6972;51.518;6.918;2022-10-16T06:47:21;2.55;;;1.98;;
13801;SDS011;6972;51.518;6.918;2022-10-16T06:49:47;3.40;;;1.80;;
13801;SDS011;6972;51.518;6.918;2022-10-16T06:52:13;2.53;;;1.70;;
13801;SDS011;6972;51.518;6.918;2022-10-16T06:54:39;5.10;;;1.70;;
13801;SDS011;6972;51.518;6.918;2022-10-16T06:57:05;2.08;;;1.60;;
13801;SDS011;6972;51.518;6.918;2022-10-16T06:59:31;4.97;;;1.70;;
13801;SDS011;6972;51.518;6.918;2022-10-16T07:01:57;4.32;;;2.47;;
13801;SDS011;6972;51.518;6.918;2022-10-16T07:04:23;2.75;;;1.75;;
13801;SDS011;6972;51.518;6.918;2022-10-16T07:06:49;4.47;;;1.90;;
13801;SDS011;6972;51.518;6.918;2022-10-16T07:09:17;3.88;;;2.05;;
13801;SDS011;6972;51.518;6.918;2022-10-16T07:11:42;4.28;;;2.10;;
13801;SDS011;6972;51.518;6.918;2022-10-16T07:14:15;4.93;;;2.42;;
13801;SDS011;6972;51.518;6.918;2022-10-16T07:16:43;4.57;;;1.90;;
13801;SDS011;6972;51.518;6.918;2022-10-16T07:19:09;2.95;;;1.50;;
13801;SDS011;6972;51.518;6.918;2022-10-16T07:21:37;5.35;;;2.28;;
13801;SDS011;6972;51.518;6.918;2022-10-16T07:24:03;4.28;;;1.67;;
13801;SDS011;6972;51.518;6.918;2022-10-16T07:26:32;2.58;;;1.77;;
13801;SDS011;6972;51.518;6.918;2022-10-16T07:28:59;3.33;;;1.75;;
13801;SDS011;6972;51.518;6.918;2022-10-16T07:31:26;4.70;;;2.10;;
13801;SDS011;6972;51.518;6.918;2022-10-16T07:33:52;4.47;;;1.83;;
13801;SDS011;6972;51.518;6.918;2022-10-16T07:36:18;3.03;;;1.83;;
13801;SDS011;6972;51.518;6.918;2022-10-16T07:38:45;6.55;;;2.03;;
13801;SDS011;6972;51.518;6.918;2022-10-16T07:41:12;4.30;;;1.98;;
13801;SDS011;6972;51.518;6.918;2022-10-16T07:43:40;4.82;;;1.85;;
13801;SDS011;6972;51.518;6.918;2022-10-16T07:46:14;4.72;;;1.90;;
13801;SDS011;6972;51.518;6.918;2022-10-16T07:48:40;4.03;;;2.15;;
13801;SDS011;6972;51.518;6.918;2022-10-16T07:51:06;6.05;;;2.05;;
13801;SDS011;6972;51.518;6.918;2022-10-16T07:53:32;3.22;;;1.90;;
13801;SDS011;6972;51.518;6.918;2022-10-16T07:56:02;5.40;;;1.90;;
13801;SDS011;6972;51.518;6.918;2022-10-16T07:58:30;2.88;;;1.90;;
13801;SDS011;6972;51.518;6.918;2022-10-16T08:00:56;7.53;;;2.08;;
13801;SDS011;6972;51.518;6.918;2022-10-16T08:03:23;6.03;;;1.90;;
13801;SDS011;6972;51.518;6.918;2022-10-16T08:05:49;7.38;;;2.15;;
13801;SDS011;6972;51.518;6.918;2022-10-16T08:08:16;5.68;;;1.80;;
13801;SDS011;6972;51.518;6.918;2022-10-16T08:10:42;2.20;;;1.75;;
13801;SDS011;6972;51.518;6.918;2022-10-16T08:13:08;4.75;;;1.88;;
13801;SDS011;6972;51.518;6.918;2022-10-16T08:15:34;2.97;;;1.80;;
13801;SDS011;6972;51.518;6.918;2022-10-16T08:18:01;5.25;;;1.90;;
13801;SDS011;6972;51.518;6.918;2022-10-16T08:20:28;6.05;;;1.65;;
13801;SDS011;6972;51.518;6.918;2022-10-16T08:22:55;4.53;;;2.00;;
13801;SDS011;6972;51.518;6.918;2022-10-16T08:25:21;3.70;;;1.67;;
13801;SDS011;6972;51.518;6.918;2022-10-16T08:27:48;2.40;;;1.70;;
13801;SDS011;6972;51.518;6.918;2022-10-16T08:30:14;2.83;;;1.60;;
13801;SDS011;6972;51.518;6.918;2022-10-16T08:32:40;2.72;;;1.60;;
13801;SDS011;6972;51.518;6.918;2022-10-16T08:35:08;3.42;;;1.75;;
13801;SDS011;6972;51.518;6.918;2022-10-16T08:37:35;5.35;;;1.60;;
13801;SDS011;6972;51.518;6.918;2022-10-16T08:40:01;3.05;;;1.80;;
13801;SDS011;6972;51.518;6.918;2022-10-16T08:50:32;7.53;;;2.17;;
13801;SDS011;6972;51.518;6.918;2022-10-16T08:53:03;5.90;;;2.05;;
13801;SDS011;6972;51.518;6.918;2022-10-16T08:55:38;4.60;;;2.08;;
13801;SDS011;6972;51.518;6.918;2022-10-16T08:58:18;5.97;;;1.80;;
13801;SDS011;6972;51.518;6.918;2022-10-16T09:00:46;6.05;;;1.80;;
13801;SDS011;6972;51.518;6.918;2022-10-16T09:06:13;3.47;;;1.58;;
13801;SDS011;6972;51.518;6.918;2022-10-16T09:14:52;7.40;;;1.80;;
13801;SDS011;6972;51.518;6.918;2022-10-16T09:23:16;6.57;;;2.03;;
13801;SDS011;6972;51.518;6.918;2022-10-16T09:25:45;7.95;;;1.60;;
13801;SDS011;6972;51.518;6.918;2022-10-16T09:28:16;3.50;;;1.50;;
13801;SDS011;6972;51.518;6.918;2022-10-16T09:30:43;3.80;;;1.40;;
13801;SDS011;6972;51.518;6.918;2022-10-16T09:33:09;3.58;;;1.60;;
13801;SDS011;6972;51.518;6.918;2022-10-16T09:35:38;5.53;;;1.63;;
13801;SDS011;6972;51.518;6.918;2022-10-16T09:38:09;5.22;;;1.60;;
13801;SDS011;6972;51.518;6.918;2022-10-16T09:40:47;5.30;;;1.55;;
13801;SDS011;6972;51.518;6.918;2022-10-16T09:43:26;5.30;;;1.60;;
13801;SDS011;6972;51.518;6.918;2022-10-16T09:48:58;4.18;;;1.50;;
13801;SDS011;6972;51.518;6.918;2022-10-16T09:51:26;5.30;;;1.50;;
13801;SDS011;6972;51.518;6.918;2022-10-16T09:53:54;3.05;;;1.40;;
13801;SDS011;6972;51.518;6.918;2022-10-16T09:56:29;5.03;;;1.40;;
13801;SDS011;6972;51.518;6.918;2022-10-16T09:58:58;5.45;;;1.50;;
13801;SDS011;6972;51.518;6.918;2022-10-16T10:01:35;5.30;;;1.42;;
13801;SDS011;6972;51.518;6.918;2022-10-16T10:04:04;3.83;;;1.58;;
13801;SDS011;6972;51.518;6.918;2022-10-16T10:06:35;2.20;;;1.25;;
13801;SDS011;6972;51.518;6.918;2022-10-16T10:11:38;6.15;;;1.40;;
13801;SDS011;6972;51.518;6.918;2022-10-16T10:14:14;4.18;;;1.75;;
13801;SDS011;6972;51.518;6.918;2022-10-16T10:16:40;4.05;;;1.83;;
13801;SDS011;6972;51.518;6.918;2022-10-16T10:19:12;4.70;;;1.60;;
13801;SDS011;6972;51.518;6.918;2022-10-16T10:21:49;7.20;;;1.45;;
13801;SDS011;6972;51.518;6.918;2022-10-16T10:24:19;4.47;;;1.45;;
13801;SDS011;6972;51.518;6.918;2022-10-16T10:29:34;4.07;;;1.60;;
13801;SDS011;6972;51.518;6.918;2022-10-16T10:43:19;5.25;;;1.40;;
13801;SDS011;6972;51.518;6.918;2022-10-16T10:45:46;5.57;;;1.60;;
13801;SDS011;6972;51.518;6.918;2022-10-16T10:50:43;5.90;;;1.52;;
13801;SDS011;6972;51.518;6.918;2022-10-16T10:53:18;4.32;;;1.50;;
13801;SDS011;6972;51.518;6.918;2022-10-16T11:04:34;4.82;;;1.60;;
13801;SDS011;6972;51.518;6.918;2022-10-16T11:07:25;3.92;;;1.40;;
13801;SDS011;6972;51.518;6.918;2022-10-16T11:09:57;3.58;;;1.75;;
13801;SDS011;6972;51.518;6.918;2022-10-16T11:12:30;3.95;;;1.50;;
13801;SDS011;6972;51.518;6.918;2022-10-16T11:15:11;2.20;;;1.20;;
13801;SDS011;6972;51.518;6.918;2022-10-16T11:17:44;3.83;;;1.55;;
13801;SDS011;6972;51.518;6.918;2022-10-16T11:20:23;1.75;;;1.10;;
13801;SDS011;6972;51.518;6.918;2022-10-16T11:25:32;4.53;;;1.40;;
13801;SDS011;6972;51.518;6.918;2022-10-16T11:31:02;1.95;;;1.05;;
13801;SDS011;6972;51.518;6.918;2022-10-16T11:33:39;2.72;;;1.30;;
13801;SDS011;6972;51.518;6.918;2022-10-16T11:36:12;3.70;;;1.30;;
13801;SDS011;6972;51.518;6.918;2022-10-16T11:41:35;4.75;;;1.30;;
13801;SDS011;6972;51.518;6.918;2022-10-16T11:55:24;5.25;;;1.25;;
13801;SDS011;6972;51.518;6.918;2022-10-16T11:57:57;5.35;;;1.80;;
13801;SDS011;6972;51.518;6.918;2022-10-16T12:03:40;2.78;;;1.20;;
13801;SDS011;6972;51.518;6.918;2022-10-16T12:09:02;5.05;;;1.23;;
13801;SDS011;6972;51.518;6.918;2022-10-16T12:14:17;7.15;;;1.10;;
13801;SDS011;6972;51.518;6.918;2022-10-16T12:19:19;1.95;;;1.20;;
13801;SDS011;6972;51.518;6.918;2022-10-16T12:25:19;1.45;;;1.05;;
13801;SDS011;6972;51.518;6.918;2022-10-16T12:31:16;3.95;;;1.05;;
13801;SDS011;6972;51.518;6.918;2022-10-16T12:37:23;3.17;;;1.20;;
13801;SDS011;6972;51.518;6.918;2022-10-16T12:39:53;3.40;;;1.40;;
13801;SDS011;6972;51.518;6.918;2022-10-16T12:44:52;2.72;;;1.38;;
13801;SDS011;6972;51.518;6.918;2022-10-16T12:47:23;4.20;;;1.20;;
13801;SDS011;6972;51.518;6.918;2022-10-16T12:49:56;4.35;;;1.65;;
13801;SDS011;6972;51.518;6.918;2022-10-16T12:52:28;2.95;;;1.23;;
13801;SDS011;6972;51.518;6.918;2022-10-16T12:55:02;3.80;;;1.23;;
13801;SDS011;6972;51.518;6.918;2022-10-16T13:09:49;3.45;;;1.33;;
13801;SDS011;6972;51.518;6.918;2022-10-16T13:20:46;4.65;;;1.30;;
13801;SDS011;6972;51.518;6.918;2022-10-16T13:23:26;2.63;;;1.52;;
13801;SDS011;6972;51.518;6.918;2022-10-16T13:28:51;6.38;;;1.85;;
13801;SDS011;6972;51.518;6.918;2022-10-16T13:34:20;5.32;;;1.80;;
13801;SDS011;6972;51.518;6.918;2022-10-16T13:40:47;8.90;;;1.90;;
13801;SDS011;6972;51.518;6.918;2022-10-16T13:42:45;2.78;;;1.38;;
13801;SDS011;6972;51.518;6.918;2022-10-16T13:45:24;5.32;;;2.00;;
13801;SDS011;6972;51.518;6.918;2022-10-16T13:48:01;4.78;;;1.80;;
13801;SDS011;6972;51.518;6.918;2022-10-16T13:53:29;3.40;;;1.75;;
13801;SDS011;6972;51.518;6.918;2022-10-16T13:55:56;6.53;;;1.80;;
13801;SDS011;6972;51.518;6.918;2022-10-16T13:58:22;5.68;;;2.05;;
13801;SDS011;6972;51.518;6.918;2022-10-16T14:00:57;4.47;;;1.60;;
13801;SDS011;6972;51.518;6.918;2022-10-16T14:03:51;4.85;;;1.65;;
13801;SDS011;6972;51.518;6.918;2022-10-16T14:06:18;3.30;;;1.27;;
13801;SDS011;6972;51.518;6.918;2022-10-16T14:09:03;3.42;;;1.52;;
13801;SDS011;6972;51.518;6.918;2022-10-16T14:11:31;2.25;;;1.30;;
13801;SDS011;6972;51.518;6.918;2022-10-16T14:13:59;3.85;;;1.38;;
13801;SDS011;6972;51.518;6.918;2022-10-16T14:16:37;5.30;;;1.55;;
13801;SDS011;6972;51.518;6.918;2022-10-16T14:19:15;3.85;;;1.10;;
13801;SDS011;6972;51.518;6.918;2022-10-16T14:21:54;5.18;;;1.48;;
13801;SDS011;6972;51.518;6.918;2022-10-16T14:24:34;6.30;;;1.40;;
13801;SDS011;6972;51.518;6.918;2022-10-16T14:27:01;4.93;;;1.35;;
13801;SDS011;6972;51.518;6.918;2022-10-16T14:32:33;3.38;;;1.20;;
13801;SDS011;6972;51.518;6.918;2022-10-16T14:35:32;5.07;;;1.35;;
13801;SDS011;6972;51.518;6.918;2022-10-16T14:38:00;4.25;;;1.30;;
13801;SDS011;6972;51.518;6.918;2022-10-16T14:40:33;3.05;;;1.50;;
13801;SDS011;6972;51.518;6.918;2022-10-16T14:43:22;3.40;;;1.20;;
13801;SDS011;6972;51.518;6.918;2022-10-16T14:45:55;3.67;;;1.40;;
13801;SDS011;6972;51.518;6.918;2022-10-16T14:48:25;4.70;;;1.33;;
13801;SDS011;6972;51.518;6.918;2022-10-16T14:50:57;2.58;;;1.20;;
13801;SDS011;6972;51.518;6.918;2022-10-16T14:53:23;2.30;;;1.50;;
13801;SDS011;6972;51.518;6.918;2022-10-16T14:55:52;4.90;;;1.30;;
13801;SDS011;6972;51.518;6.918;2022-10-16T14:58:19;5.60;;;1.30;;
13801;SDS011;6972;51.518;6.918;2022-10-16T15:00:51;3.97;;;1.13;;
13801;SDS011;6972;51.518;6.918;2022-10-16T15:03:22;6.65;;;1.23;;
13801;SDS011;6972;51.518;6.918;2022-10-16T15:05:48;2.53;;;1.20;;
13801;SDS011;6972;51.518;6.918;2022-10-16T15:08:14;4.25;;;1.30;;
13801;SDS011;6972;51.518;6.918;2022-10-16T15:10:44;3.45;;;1.40;;
13801;SDS011;6972;51.518;6.918;2022-10-16T15:16:00;6.07;;;1.30;;
13801;SDS011;6972;51.518;6.918;2022-10-16T15:18:26;3.10;;;1.20;;
13801;SDS011;6972;51.518;6.918;2022-10-16T15:21:01;3.22;;;1.10;;
13801;SDS011;6972;51.518;6.918;2022-10-16T15:23:45;4.93;;;1.13;;
13801;SDS011;6972;51.518;6.918;2022-10-16T15:26:11;2.47;;;1.00;;
13801;SDS011;6972;51.518;6.918;2022-10-16T15:28:37;5.60;;;1.80;;
13801;SDS011;6972;51.518;6.918;2022-10-16T15:31:15;4.85;;;1.42;;
13801;SDS011;6972;51.518;6.918;2022-10-16T15:33:49;6.68;;;1.40;;
13801;SDS011;6972;51.518;6.918;2022-10-16T15:36:30;3.00;;;1.20;;
13801;SDS011;6972;51.518;6.918;2022-10-16T15:39:12;6.20;;;1.80;;
13801;SDS011;6972;51.518;6.918;2022-10-16T15:41:42;3.03;;;1.25;;
13801;SDS011;6972;51.518;6.918;2022-10-16T15:44:10;3.05;;;1.95;;
13801;SDS011;6972;51.518;6.918;2022-10-16T15:46:36;2.45;;;1.48;;
13801;SDS011;6972;51.518;6.918;2022-10-16T15:49:03;3.22;;;1.33;;
13801;SDS011;6972;51.518;6.918;2022-10-16T15:51:37;5.53;;;1.40;;
13801;SDS011;6972;51.518;6.918;2022-10-16T15:54:05;5.30;;;1.30;;
13801;SDS011;6972;51.518;6.918;2022-10-16T15:56:32;3.58;;;1.25;;
13801;SDS011;6972;51.518;6.918;2022-10-16T15:58:59;3.33;;;1.30;;
13801;SDS011;6972;51.518;6.918;2022-10-16T16:01:26;3.50;;;1.58;;
13801;SDS011;6972;51.518;6.918;2022-10-16T16:03:54;5.03;;;1.60;;
13801;SDS011;6972;51.518;6.918;2022-10-16T16:06:21;5.65;;;1.50;;
13801;SDS011;6972;51.518;6.918;2022-10-16T16:08:49;5.30;;;1.70;;
13801;SDS011;6972;51.518;6.918;2022-10-16T16:11:16;3.65;;;1.75;;
13801;SDS011;6972;51.518;6.918;2022-10-16T16:13:43;2.60;;;1.45;;
13801;SDS011;6972;51.518;6.918;2022-10-16T16:16:10;4.13;;;1.60;;
13801;SDS011;6972;51.518;6.918;2022-10-16T16:18:37;5.35;;;2.17;;
13801;SDS011;6972;51.518;6.918;2022-10-16T16:21:03;7.63;;;2.42;;
13801;SDS011;6972;51.518;6.918;2022-10-16T16:23:29;3.67;;;2.30;;
13801;SDS011;6972;51.518;6.918;2022-10-16T16:26:06;3.80;;;1.90;;
13801;SDS011;6972;51.518;6.918;2022-10-16T16:28:35;4.28;;;2.30;;
13801;SDS011;6972;51.518;6.918;2022-10-16T16:31:01;4.40;;;2.38;;
13801;SDS011;6972;51.518;6.918;2022-10-16T16:33:27;6.15;;;2.92;;
13801;SDS011;6972;51.518;6.918;2022-10-16T16:35:57;3.88;;;2.10;;
13801;SDS011;6972;51.518;6.918;2022-10-16T16:38:27;3.92;;;2.25;;
13801;SDS011;6972;51.518;6.918;2022-10-16T16:40:53;12.65;;;6.80;;
13801;SDS011;6972;51.518;6.918;2022-10-16T16:43:19;23.45;;;17.50;;
13801;SDS011;6972;51.518;6.918;2022-10-16T16:45:48;15.27;;;10.32;;
13801;SDS011;6972;51.518;6.918;2022-10-16T16:48:14;13.77;;;9.77;;
13801;SDS011;6972;51.518;6.918;2022-10-16T16:50:39;17.92;;;11.40;;
13801;SDS011;6972;51.518;6.918;2022-10-16T16:53:05;16.48;;;11.02;;
13801;SDS011;6972;51.518;6.918;2022-10-16T16:55:32;8.80;;;6.03;;
13801;SDS011;6972;51.518;6.918;2022-10-16T16:57:58;8.60;;;4.47;;
13801;SDS011;6972;51.518;6.918;2022-10-16T17:00:24;8.27;;;4.55;;
13801;SDS011;6972;51.518;6.918;2022-10-16T17:02:49;10.43;;;5.00;;
13801;SDS011;6972;51.518;6.918;2022-10-16T17:05:15;9.35;;;5.30;;
13801;SDS011;6972;51.518;6.918;2022-10-16T17:07:41;12.55;;;6.70;;
13801;SDS011;6972;51.518;6.918;2022-10-16T17:10:07;23.58;;;9.50;;
13801;SDS011;6972;51.518;6.918;2022-10-16T17:12:33;19.40;;;10.32;;
13801;SDS011;6972;51.518;6.918;2022-10-16T17:14:59;19.88;;;9.10;;
13801;SDS011;6972;51.518;6.918;2022-10-16T17:17:25;16.95;;;8.80;;
13801;SDS011;6972;51.518;6.918;2022-10-16T17:19:51;12.95;;;7.00;;
13801;SDS011;6972;51.518;6.918;2022-10-16T17:22:18;13.60;;;6.57;;
13801;SDS011;6972;51.518;6.918;2022-10-16T17:24:47;13.10;;;6.18;;
13801;SDS011;6972;51.518;6.918;2022-10-16T17:27:17;11.32;;;5.50;;
13801;SDS011;6972;51.518;6.918;2022-10-16T17:29:43;12.25;;;6.00;;
13801;SDS011;6972;51.518;6.918;2022-10-16T17:32:09;12.68;;;5.97;;
13801;SDS011;6972;51.518;6.918;2022-10-16T17:34:35;9.55;;;5.68;;
13801;SDS011;6972;51.518;6.918;2022-10-16T17:37:01;17.10;;;6.30;;
13801;SDS011;6972;51.518;6.918;2022-10-16T17:39:27;10.60;;;6.40;;
13801;SDS011;6972;51.518;6.918;2022-10-16T17:41:53;9.45;;;5.72;;
13801;SDS011;6972;51.518;6.918;2022-10-16T17:44:19;11.18;;;6.00;;
13801;SDS011;6972;51.518;6.918;2022-10-16T17:46:46;11.25;;;5.88;;
13801;SDS011;6972;51.518;6.918;2022-10-16T17:49:13;11.82;;;5.15;;
13801;SDS011;6972;51.518;6.918;2022-10-16T17:51:39;8.63;;;4.90;;